sensor_id;sensor_type;location;lat;lon;timestamp;temperature;humidity
49224;DHT22;35050;51.316;5.994;2023-05-18T00:02:05;11.80;99.90
49224;DHT22;35050;51.316;5.994;2023-05-18T00:04:32;11.90;99.90
49224;DHT22;35050;51.316;5.994;2023-05-18T00:06:59;11.80;99.90
49224;DHT22;35050;51.316;5.994;2023-05-18T00:09:32;11.70;99.90
49224;DHT22;35050;51.316;5.994;2023-05-18T00:11:59;11.60;99.90
49224;DHT22;35050;51.316;5.994;2023-05-18T00:14:26;11.70;99.90
49224;DHT22;35050;51.316;5.994;2023-05-18T00:16:52;11.70;99.90
49224;DHT22;35050;51.316;5.994;2023-05-18T00:19:21;11.60;99.90
49224;DHT22;35050;51.316;5.994;2023-05-18T00:21:50;11.70;99.90
49224;DHT22;35050;51.316;5.994;2023-05-18T00:24:17;11.60;99.90
49224;DHT22;35050;51.316;5.994;2023-05-18T00:26:44;11.60;99.90
49224;DHT22;35050;51.316;5.994;2023-05-18T00:29:11;11.60;99.90
49224;DHT22;35050;51.316;5.994;2023-05-18T00:31:37;11.50;99.90
49224;DHT22;35050;51.316;5.994;2023-05-18T00:34:12;11.30;99.90
49224;DHT22;35050;51.316;5.994;2023-05-18T00:36:38;11.30;99.90
49224;DHT22;35050;51.316;5.994;2023-05-18T00:39:05;11.30;99.90
49224;DHT22;35050;51.316;5.994;2023-05-18T00:41:31;11.30;99.90
49224;DHT22;35050;51.316;5.994;2023-05-18T00:43:57;11.30;99.90
49224;DHT22;35050;51.316;5.994;2023-05-18T00:46:24;11.30;99.90
49224;DHT22;35050;51.316;5.994;2023-05-18T00:48:51;11.30;99.90
49224;DHT22;35050;51.316;5.994;2023-05-18T00:51:19;11.20;99.90
49224;DHT22;35050;51.316;5.994;2023-05-18T00:53:45;11.10;99.90
49224;DHT22;35050;51.316;5.994;2023-05-18T00:56:11;11.10;99.90
49224;DHT22;35050;51.316;5.994;2023-05-18T00:58:38;11.20;99.90
49224;DHT22;35050;51.316;5.994;2023-05-18T01:01:04;11.10;99.90
49224;DHT22;35050;51.316;5.994;2023-05-18T01:03:37;11.20;99.90
49224;DHT22;35050;51.316;5.994;2023-05-18T01:06:05;11.00;99.90
49224;DHT22;35050;51.316;5.994;2023-05-18T01:08:31;11.00;99.90
49224;DHT22;35050;51.316;5.994;2023-05-18T01:11:06;11.00;99.90
49224;DHT22;35050;51.316;5.994;2023-05-18T01:13:49;11.00;99.90
49224;DHT22;35050;51.316;5.994;2023-05-18T01:16:22;10.90;99.90
49224;DHT22;35050;51.316;5.994;2023-05-18T01:18:58;10.90;99.90
49224;DHT22;35050;51.316;5.994;2023-05-18T01:22:16;10.90;99.90
49224;DHT22;35050;51.316;5.994;2023-05-18T01:24:48;10.80;99.90
49224;DHT22;35050;51.316;5.994;2023-05-18T01:27:19;10.90;99.90
49224;DHT22;35050;51.316;5.994;2023-05-18T01:29:47;10.80;99.90
49224;DHT22;35050;51.316;5.994;2023-05-18T01:32:17;10.70;99.90
49224;DHT22;35050;51.316;5.994;2023-05-18T01:34:44;10.70;99.90
49224;DHT22;35050;51.316;5.994;2023-05-18T01:37:10;10.80;99.90
49224;DHT22;35050;51.316;5.994;2023-05-18T01:39:36;10.70;99.90
49224;DHT22;35050;51.316;5.994;2023-05-18T01:42:07;10.70;99.90
49224;DHT22;35050;51.316;5.994;2023-05-18T01:44:38;10.70;99.90
49224;DHT22;35050;51.316;5.994;2023-05-18T01:47:12;10.70;99.90
49224;DHT22;35050;51.316;5.994;2023-05-18T01:49:50;10.70;99.90
49224;DHT22;35050;51.316;5.994;2023-05-18T01:52:38;10.50;99.90
49224;DHT22;35050;51.316;5.994;2023-05-18T01:55:06;10.50;99.90
49224;DHT22;35050;51.316;5.994;2023-05-18T01:57:32;10.40;99.90
49224;DHT22;35050;51.316;5.994;2023-05-18T01:59:59;10.30;99.90
49224;DHT22;35050;51.316;5.994;2023-05-18T02:02:26;10.50;99.90
49224;DHT22;35050;51.316;5.994;2023-05-18T02:04:52;10.50;99.90
49224;DHT22;35050;51.316;5.994;2023-05-18T02:07:17;10.30;99.90
49224;DHT22;35050;51.316;5.994;2023-05-18T02:09:43;10.40;99.90
49224;DHT22;35050;51.316;5.994;2023-05-18T02:12:09;10.40;99.90
49224;DHT22;35050;51.316;5.994;2023-05-18T02:14:35;10.40;99.90
49224;DHT22;35050;51.316;5.994;2023-05-18T02:17:01;10.30;99.90
49224;DHT22;35050;51.316;5.994;2023-05-18T02:19:26;10.20;99.90
49224;DHT22;35050;51.316;5.994;2023-05-18T02:21:52;10.30;99.90
49224;DHT22;35050;51.316;5.994;2023-05-18T02:24:18;10.10;99.90
49224;DHT22;35050;51.316;5.994;2023-05-18T02:26:43;10.10;99.90
49224;DHT22;35050;51.316;5.994;2023-05-18T02:29:09;10.10;99.90
49224;DHT22;35050;51.316;5.994;2023-05-18T02:31:39;10.00;99.90
49224;DHT22;35050;51.316;5.994;2023-05-18T02:34:05;10.00;99.90
49224;DHT22;35050;51.316;5.994;2023-05-18T02:36:31;10.00;99.90
49224;DHT22;35050;51.316;5.994;2023-05-18T02:39:05;10.00;99.90
49224;DHT22;35050;51.316;5.994;2023-05-18T02:41:31;10.00;99.90
49224;DHT22;35050;51.316;5.994;2023-05-18T02:43:57;9.90;99.90
49224;DHT22;35050;51.316;5.994;2023-05-18T02:46:23;9.90;99.90
49224;DHT22;35050;51.316;5.994;2023-05-18T02:48:48;10.00;99.90
49224;DHT22;35050;51.316;5.994;2023-05-18T02:51:14;9.90;99.90
49224;DHT22;35050;51.316;5.994;2023-05-18T02:53:40;9.90;99.90
49224;DHT22;35050;51.316;5.994;2023-05-18T02:56:08;9.90;99.90
49224;DHT22;35050;51.316;5.994;2023-05-18T02:58:34;10.00;99.90
49224;DHT22;35050;51.316;5.994;2023-05-18T03:01:00;9.90;99.90
49224;DHT22;35050;51.316;5.994;2023-05-18T03:03:28;9.90;99.90
49224;DHT22;35050;51.316;5.994;2023-05-18T03:05:54;9.90;99.90
49224;DHT22;35050;51.316;5.994;2023-05-18T03:08:20;9.80;99.90
49224;DHT22;35050;51.316;5.994;2023-05-18T03:10:47;9.80;99.90
49224;DHT22;35050;51.316;5.994;2023-05-18T03:13:14;9.70;99.90
49224;DHT22;35050;51.316;5.994;2023-05-18T03:15:40;9.60;99.90
49224;DHT22;35050;51.316;5.994;2023-05-18T03:18:05;9.60;99.90
49224;DHT22;35050;51.316;5.994;2023-05-18T03:20:31;9.50;99.90
49224;DHT22;35050;51.316;5.994;2023-05-18T03:22:57;9.50;99.90
49224;DHT22;35050;51.316;5.994;2023-05-18T03:25:23;9.50;99.90
49224;DHT22;35050;51.316;5.994;2023-05-18T03:27:50;9.50;99.90
49224;DHT22;35050;51.316;5.994;2023-05-18T03:30:18;9.50;99.90
49224;DHT22;35050;51.316;5.994;2023-05-18T03:32:45;9.40;99.90
49224;DHT22;35050;51.316;5.994;2023-05-18T03:35:11;9.30;99.90
49224;DHT22;35050;51.316;5.994;2023-05-18T03:37:37;9.40;99.90
49224;DHT22;35050;51.316;5.994;2023-05-18T03:40:13;9.40;99.90
49224;DHT22;35050;51.316;5.994;2023-05-18T03:42:40;9.40;99.90
49224;DHT22;35050;51.316;5.994;2023-05-18T03:45:08;9.40;99.90
49224;DHT22;35050;51.316;5.994;2023-05-18T03:47:34;9.50;99.90
49224;DHT22;35050;51.316;5.994;2023-05-18T03:49:59;9.40;99.90
49224;DHT22;35050;51.316;5.994;2023-05-18T03:52:25;9.50;99.90
49224;DHT22;35050;51.316;5.994;2023-05-18T03:54:54;9.40;99.90
49224;DHT22;35050;51.316;5.994;2023-05-18T03:57:20;9.30;99.90
49224;DHT22;35050;51.316;5.994;2023-05-18T03:59:45;9.30;99.90
49224;DHT22;35050;51.316;5.994;2023-05-18T04:02:11;9.30;99.90
49224;DHT22;35050;51.316;5.994;2023-05-18T04:04:38;9.10;99.90
49224;DHT22;35050;51.316;5.994;2023-05-18T04:07:11;9.00;99.90
49224;DHT22;35050;51.316;5.994;2023-05-18T04:09:38;9.00;99.90
49224;DHT22;35050;51.316;5.994;2023-05-18T04:12:04;9.20;99.90
49224;DHT22;35050;51.316;5.994;2023-05-18T04:14:29;9.30;99.90
49224;DHT22;35050;51.316;5.994;2023-05-18T04:16:57;9.20;99.90
49224;DHT22;35050;51.316;5.994;2023-05-18T04:19:38;9.20;99.90
49224;DHT22;35050;51.316;5.994;2023-05-18T04:22:05;9.20;99.90
49224;DHT22;35050;51.316;5.994;2023-05-18T04:24:31;9.20;99.90
49224;DHT22;35050;51.316;5.994;2023-05-18T04:26:59;9.20;99.90
49224;DHT22;35050;51.316;5.994;2023-05-18T04:29:25;9.30;99.90
49224;DHT22;35050;51.316;5.994;2023-05-18T04:31:52;9.30;99.90
49224;DHT22;35050;51.316;5.994;2023-05-18T04:34:24;9.20;99.90
49224;DHT22;35050;51.316;5.994;2023-05-18T04:36:50;9.30;99.90
49224;DHT22;35050;51.316;5.994;2023-05-18T04:39:18;9.20;99.90
49224;DHT22;35050;51.316;5.994;2023-05-18T04:41:48;9.30;99.90
49224;DHT22;35050;51.316;5.994;2023-05-18T04:44:15;9.30;99.90
49224;DHT22;35050;51.316;5.994;2023-05-18T04:46:42;9.40;99.90
49224;DHT22;35050;51.316;5.994;2023-05-18T04:49:12;9.50;99.90
49224;DHT22;35050;51.316;5.994;2023-05-18T04:51:39;9.40;99.90
49224;DHT22;35050;51.316;5.994;2023-05-18T04:54:06;9.40;99.90
49224;DHT22;35050;51.316;5.994;2023-05-18T04:56:33;9.40;99.90
49224;DHT22;35050;51.316;5.994;2023-05-18T04:58:59;9.40;99.90
49224;DHT22;35050;51.316;5.994;2023-05-18T05:01:26;9.60;99.90
49224;DHT22;35050;51.316;5.994;2023-05-18T05:03:51;9.60;99.90
49224;DHT22;35050;51.316;5.994;2023-05-18T05:06:17;9.60;99.90
49224;DHT22;35050;51.316;5.994;2023-05-18T05:08:43;9.70;99.90
49224;DHT22;35050;51.316;5.994;2023-05-18T05:11:08;9.80;99.90
49224;DHT22;35050;51.316;5.994;2023-05-18T05:13:34;9.80;99.90
49224;DHT22;35050;51.316;5.994;2023-05-18T05:16:00;9.80;99.90
49224;DHT22;35050;51.316;5.994;2023-05-18T05:18:26;9.80;99.90
49224;DHT22;35050;51.316;5.994;2023-05-18T05:20:53;9.70;99.90
49224;DHT22;35050;51.316;5.994;2023-05-18T05:23:18;9.90;99.90
49224;DHT22;35050;51.316;5.994;2023-05-18T05:25:44;9.80;99.90
49224;DHT22;35050;51.316;5.994;2023-05-18T05:28:10;9.70;99.90
49224;DHT22;35050;51.316;5.994;2023-05-18T05:30:37;9.90;99.90
49224;DHT22;35050;51.316;5.994;2023-05-18T05:33:02;9.80;99.90
49224;DHT22;35050;51.316;5.994;2023-05-18T05:35:28;9.80;99.90
49224;DHT22;35050;51.316;5.994;2023-05-18T05:37:54;9.80;99.90
49224;DHT22;35050;51.316;5.994;2023-05-18T05:40:19;9.80;99.90
49224;DHT22;35050;51.316;5.994;2023-05-18T05:42:46;9.90;99.90
49224;DHT22;35050;51.316;5.994;2023-05-18T05:45:12;10.20;99.90
49224;DHT22;35050;51.316;5.994;2023-05-18T05:47:37;10.10;99.90
49224;DHT22;35050;51.316;5.994;2023-05-18T05:50:04;10.00;99.90
49224;DHT22;35050;51.316;5.994;2023-05-18T05:52:29;10.00;99.90
49224;DHT22;35050;51.316;5.994;2023-05-18T05:54:55;10.20;99.90
49224;DHT22;35050;51.316;5.994;2023-05-18T05:57:21;10.20;99.90
49224;DHT22;35050;51.316;5.994;2023-05-18T05:59:46;10.30;99.90
49224;DHT22;35050;51.316;5.994;2023-05-18T06:02:12;10.20;99.90
49224;DHT22;35050;51.316;5.994;2023-05-18T06:04:37;10.30;99.90
49224;DHT22;35050;51.316;5.994;2023-05-18T06:07:03;10.40;99.90
49224;DHT22;35050;51.316;5.994;2023-05-18T06:09:29;10.30;99.90
49224;DHT22;35050;51.316;5.994;2023-05-18T06:11:55;10.50;99.90
49224;DHT22;35050;51.316;5.994;2023-05-18T06:14:20;10.50;99.90
49224;DHT22;35050;51.316;5.994;2023-05-18T06:16:46;10.60;99.90
49224;DHT22;35050;51.316;5.994;2023-05-18T06:19:12;10.40;99.90
49224;DHT22;35050;51.316;5.994;2023-05-18T06:21:38;10.50;99.90
49224;DHT22;35050;51.316;5.994;2023-05-18T06:24:04;10.60;99.90
49224;DHT22;35050;51.316;5.994;2023-05-18T06:26:30;10.80;99.90
49224;DHT22;35050;51.316;5.994;2023-05-18T06:28:56;10.80;99.90
49224;DHT22;35050;51.316;5.994;2023-05-18T06:31:22;10.90;99.90
49224;DHT22;35050;51.316;5.994;2023-05-18T06:33:47;11.00;99.90
49224;DHT22;35050;51.316;5.994;2023-05-18T06:36:14;11.10;99.90
49224;DHT22;35050;51.316;5.994;2023-05-18T06:38:40;11.20;99.90
49224;DHT22;35050;51.316;5.994;2023-05-18T06:41:06;11.40;99.90
49224;DHT22;35050;51.316;5.994;2023-05-18T06:43:31;11.40;99.90
49224;DHT22;35050;51.316;5.994;2023-05-18T06:45:57;11.40;99.90
49224;DHT22;35050;51.316;5.994;2023-05-18T06:48:25;11.50;99.90
49224;DHT22;35050;51.316;5.994;2023-05-18T06:50:52;11.40;99.90
49224;DHT22;35050;51.316;5.994;2023-05-18T06:53:17;11.20;99.90
49224;DHT22;35050;51.316;5.994;2023-05-18T06:55:43;11.40;99.90
49224;DHT22;35050;51.316;5.994;2023-05-18T06:58:08;11.50;99.90
49224;DHT22;35050;51.316;5.994;2023-05-18T07:00:34;11.70;99.90
49224;DHT22;35050;51.316;5.994;2023-05-18T07:03:00;11.70;99.90
49224;DHT22;35050;51.316;5.994;2023-05-18T07:05:26;11.90;99.90
49224;DHT22;35050;51.316;5.994;2023-05-18T07:07:52;11.90;99.90
49224;DHT22;35050;51.316;5.994;2023-05-18T07:10:17;11.70;99.90
49224;DHT22;35050;51.316;5.994;2023-05-18T07:12:43;11.80;99.90
49224;DHT22;35050;51.316;5.994;2023-05-18T07:15:09;12.10;99.90
49224;DHT22;35050;51.316;5.994;2023-05-18T07:17:36;12.40;99.90
49224;DHT22;35050;51.316;5.994;2023-05-18T07:20:03;12.50;99.90
49224;DHT22;35050;51.316;5.994;2023-05-18T07:22:31;12.60;99.90
49224;DHT22;35050;51.316;5.994;2023-05-18T07:24:57;12.80;99.90
49224;DHT22;35050;51.316;5.994;2023-05-18T07:27:23;12.90;99.90
49224;DHT22;35050;51.316;5.994;2023-05-18T07:29:49;13.00;99.90
49224;DHT22;35050;51.316;5.994;2023-05-18T07:32:15;13.10;99.90
49224;DHT22;35050;51.316;5.994;2023-05-18T07:34:40;13.20;99.90
49224;DHT22;35050;51.316;5.994;2023-05-18T07:37:08;13.40;99.90
49224;DHT22;35050;51.316;5.994;2023-05-18T07:39:34;13.50;99.90
49224;DHT22;35050;51.316;5.994;2023-05-18T07:42:00;13.50;99.90
49224;DHT22;35050;51.316;5.994;2023-05-18T07:44:26;13.40;99.90
49224;DHT22;35050;51.316;5.994;2023-05-18T07:46:52;13.40;99.90
49224;DHT22;35050;51.316;5.994;2023-05-18T07:49:18;13.60;99.90
49224;DHT22;35050;51.316;5.994;2023-05-18T07:51:43;13.80;99.90
49224;DHT22;35050;51.316;5.994;2023-05-18T07:54:09;13.90;99.90
49224;DHT22;35050;51.316;5.994;2023-05-18T07:56:35;14.20;99.90
49224;DHT22;35050;51.316;5.994;2023-05-18T07:59:01;14.30;99.90
49224;DHT22;35050;51.316;5.994;2023-05-18T08:01:26;14.50;99.90
49224;DHT22;35050;51.316;5.994;2023-05-18T08:03:54;14.80;99.90
49224;DHT22;35050;51.316;5.994;2023-05-18T08:06:21;14.90;99.80
49224;DHT22;35050;51.316;5.994;2023-05-18T08:08:46;14.80;99.40
49224;DHT22;35050;51.316;5.994;2023-05-18T08:11:12;14.90;99.50
49224;DHT22;35050;51.316;5.994;2023-05-18T08:13:38;15.10;98.80
49224;DHT22;35050;51.316;5.994;2023-05-18T08:16:03;15.30;98.30
49224;DHT22;35050;51.316;5.994;2023-05-18T08:18:29;15.40;98.80
49224;DHT22;35050;51.316;5.994;2023-05-18T08:20:55;15.20;97.70
49224;DHT22;35050;51.316;5.994;2023-05-18T08:23:20;15.10;96.50
49224;DHT22;35050;51.316;5.994;2023-05-18T08:25:47;15.00;96.70
49224;DHT22;35050;51.316;5.994;2023-05-18T08:28:13;15.40;97.20
49224;DHT22;35050;51.316;5.994;2023-05-18T08:30:39;15.10;96.10
49224;DHT22;35050;51.316;5.994;2023-05-18T08:33:04;14.90;96.00
49224;DHT22;35050;51.316;5.994;2023-05-18T08:35:30;15.00;95.30
49224;DHT22;35050;51.316;5.994;2023-05-18T08:37:56;15.10;94.70
49224;DHT22;35050;51.316;5.994;2023-05-18T08:40:25;15.30;94.50
49224;DHT22;35050;51.316;5.994;2023-05-18T08:43:06;15.60;94.90
49224;DHT22;35050;51.316;5.994;2023-05-18T08:45:40;15.80;94.30
49224;DHT22;35050;51.316;5.994;2023-05-18T08:48:09;16.00;95.50
49224;DHT22;35050;51.316;5.994;2023-05-18T08:50:37;16.00;94.60
49224;DHT22;35050;51.316;5.994;2023-05-18T08:53:05;16.00;94.50
49224;DHT22;35050;51.316;5.994;2023-05-18T08:55:31;16.30;95.00
49224;DHT22;35050;51.316;5.994;2023-05-18T08:58:05;16.30;94.50
49224;DHT22;35050;51.316;5.994;2023-05-18T09:00:32;16.20;93.70
49224;DHT22;35050;51.316;5.994;2023-05-18T09:02:58;16.40;93.80
49224;DHT22;35050;51.316;5.994;2023-05-18T09:05:24;16.70;93.20
49224;DHT22;35050;51.316;5.994;2023-05-18T09:07:50;16.70;92.20
49224;DHT22;35050;51.316;5.994;2023-05-18T09:10:16;16.60;92.70
49224;DHT22;35050;51.316;5.994;2023-05-18T09:12:43;16.30;93.00
49224;DHT22;35050;51.316;5.994;2023-05-18T09:15:12;16.70;92.00
49224;DHT22;35050;51.316;5.994;2023-05-18T09:17:38;16.90;92.20
49224;DHT22;35050;51.316;5.994;2023-05-18T09:20:04;16.40;92.40
49224;DHT22;35050;51.316;5.994;2023-05-18T09:22:31;16.90;91.70
49224;DHT22;35050;51.316;5.994;2023-05-18T09:24:56;17.00;91.10
49224;DHT22;35050;51.316;5.994;2023-05-18T09:27:22;17.60;91.50
49224;DHT22;35050;51.316;5.994;2023-05-18T09:29:56;17.50;91.40
49224;DHT22;35050;51.316;5.994;2023-05-18T09:32:22;17.60;90.90
49224;DHT22;35050;51.316;5.994;2023-05-18T09:34:47;17.70;91.30
49224;DHT22;35050;51.316;5.994;2023-05-18T09:37:18;17.80;90.90
49224;DHT22;35050;51.316;5.994;2023-05-18T09:39:44;17.80;90.30
49224;DHT22;35050;51.316;5.994;2023-05-18T09:42:10;17.80;90.10
49224;DHT22;35050;51.316;5.994;2023-05-18T09:44:36;17.90;90.60
49224;DHT22;35050;51.316;5.994;2023-05-18T09:47:07;18.10;91.30
49224;DHT22;35050;51.316;5.994;2023-05-18T09:49:33;18.00;90.30
49224;DHT22;35050;51.316;5.994;2023-05-18T09:51:59;18.30;90.60
49224;DHT22;35050;51.316;5.994;2023-05-18T09:54:25;18.00;88.80
49224;DHT22;35050;51.316;5.994;2023-05-18T09:56:51;18.00;88.30
49224;DHT22;35050;51.316;5.994;2023-05-18T09:59:16;18.10;87.20
49224;DHT22;35050;51.316;5.994;2023-05-18T10:01:59;17.70;90.00
49224;DHT22;35050;51.316;5.994;2023-05-18T10:07:01;18.00;87.50
49224;DHT22;35050;51.316;5.994;2023-05-18T10:09:27;18.20;89.50
49224;DHT22;35050;51.316;5.994;2023-05-18T10:11:53;18.20;89.10
49224;DHT22;35050;51.316;5.994;2023-05-18T10:14:23;17.70;89.50
49224;DHT22;35050;51.316;5.994;2023-05-18T10:16:51;18.60;88.90
49224;DHT22;35050;51.316;5.994;2023-05-18T10:19:17;18.10;88.50
49224;DHT22;35050;51.316;5.994;2023-05-18T10:21:43;17.80;89.70
49224;DHT22;35050;51.316;5.994;2023-05-18T10:24:12;18.00;88.20
49224;DHT22;35050;51.316;5.994;2023-05-18T10:26:42;18.20;88.90
49224;DHT22;35050;51.316;5.994;2023-05-18T10:29:09;18.00;87.70
49224;DHT22;35050;51.316;5.994;2023-05-18T10:31:37;18.40;89.10
49224;DHT22;35050;51.316;5.994;2023-05-18T10:34:04;18.80;87.40
49224;DHT22;35050;51.316;5.994;2023-05-18T10:36:32;18.40;87.10
49224;DHT22;35050;51.316;5.994;2023-05-18T10:39:02;18.70;85.50
49224;DHT22;35050;51.316;5.994;2023-05-18T10:41:29;19.00;86.80
49224;DHT22;35050;51.316;5.994;2023-05-18T10:43:57;19.70;85.40
49224;DHT22;35050;51.316;5.994;2023-05-18T10:46:28;19.20;85.00
49224;DHT22;35050;51.316;5.994;2023-05-18T10:48:54;19.40;82.00
49224;DHT22;35050;51.316;5.994;2023-05-18T10:51:22;19.90;84.00
49224;DHT22;35050;51.316;5.994;2023-05-18T10:53:49;20.00;82.60
49224;DHT22;35050;51.316;5.994;2023-05-18T10:56:15;20.10;82.10
49224;DHT22;35050;51.316;5.994;2023-05-18T10:58:42;20.10;83.60
49224;DHT22;35050;51.316;5.994;2023-05-18T11:01:09;19.70;80.80
49224;DHT22;35050;51.316;5.994;2023-05-18T11:03:37;19.90;81.00
49224;DHT22;35050;51.316;5.994;2023-05-18T11:06:07;20.30;81.50
49224;DHT22;35050;51.316;5.994;2023-05-18T11:08:50;20.50;79.30
49224;DHT22;35050;51.316;5.994;2023-05-18T11:11:16;21.00;79.00
49224;DHT22;35050;51.316;5.994;2023-05-18T11:13:49;21.10;77.70
49224;DHT22;35050;51.316;5.994;2023-05-18T11:16:16;20.70;80.70
49224;DHT22;35050;51.316;5.994;2023-05-18T11:18:50;20.40;81.20
49224;DHT22;35050;51.316;5.994;2023-05-18T11:24:29;20.30;80.20
49224;DHT22;35050;51.316;5.994;2023-05-18T11:27:01;21.00;81.30
49224;DHT22;35050;51.316;5.994;2023-05-18T11:29:39;21.50;79.50
49224;DHT22;35050;51.316;5.994;2023-05-18T11:32:25;20.70;79.40
49224;DHT22;35050;51.316;5.994;2023-05-18T11:34:53;20.00;77.30
49224;DHT22;35050;51.316;5.994;2023-05-18T11:40:10;20.30;79.30
49224;DHT22;35050;51.316;5.994;2023-05-18T11:42:36;20.20;79.40
49224;DHT22;35050;51.316;5.994;2023-05-18T11:45:08;20.50;78.10
49224;DHT22;35050;51.316;5.994;2023-05-18T11:47:34;20.50;78.30
49224;DHT22;35050;51.316;5.994;2023-05-18T11:50:09;20.70;78.80
49224;DHT22;35050;51.316;5.994;2023-05-18T11:52:51;21.20;77.30
49224;DHT22;35050;51.316;5.994;2023-05-18T11:55:20;20.30;77.90
49224;DHT22;35050;51.316;5.994;2023-05-18T11:57:50;20.60;79.50
49224;DHT22;35050;51.316;5.994;2023-05-18T12:00:17;21.00;78.80
49224;DHT22;35050;51.316;5.994;2023-05-18T12:02:45;21.00;78.70
49224;DHT22;35050;51.316;5.994;2023-05-18T12:05:12;20.80;78.40
49224;DHT22;35050;51.316;5.994;2023-05-18T12:07:39;20.80;75.60
49224;DHT22;35050;51.316;5.994;2023-05-18T12:10:09;21.20;77.50
49224;DHT22;35050;51.316;5.994;2023-05-18T12:12:36;21.40;78.20
49224;DHT22;35050;51.316;5.994;2023-05-18T12:15:03;21.60;77.50
49224;DHT22;35050;51.316;5.994;2023-05-18T12:17:41;21.20;77.50
49224;DHT22;35050;51.316;5.994;2023-05-18T12:20:11;21.60;77.00
49224;DHT22;35050;51.316;5.994;2023-05-18T12:22:38;21.50;77.60
49224;DHT22;35050;51.316;5.994;2023-05-18T12:25:05;21.00;77.90
49224;DHT22;35050;51.316;5.994;2023-05-18T12:27:39;21.20;77.30
49224;DHT22;35050;51.316;5.994;2023-05-18T12:30:09;21.50;78.50
49224;DHT22;35050;51.316;5.994;2023-05-18T12:32:36;21.60;76.00
49224;DHT22;35050;51.316;5.994;2023-05-18T12:35:03;21.40;77.60
49224;DHT22;35050;51.316;5.994;2023-05-18T12:37:30;21.80;75.90
49224;DHT22;35050;51.316;5.994;2023-05-18T12:39:56;22.00;75.80
49224;DHT22;35050;51.316;5.994;2023-05-18T12:42:21;21.90;74.70
49224;DHT22;35050;51.316;5.994;2023-05-18T12:44:47;22.00;75.80
49224;DHT22;35050;51.316;5.994;2023-05-18T12:47:15;21.90;74.70
49224;DHT22;35050;51.316;5.994;2023-05-18T12:49:46;21.70;75.40
49224;DHT22;35050;51.316;5.994;2023-05-18T12:52:14;21.70;73.60
49224;DHT22;35050;51.316;5.994;2023-05-18T12:54:50;21.20;75.30
49224;DHT22;35050;51.316;5.994;2023-05-18T12:57:20;21.70;76.40
49224;DHT22;35050;51.316;5.994;2023-05-18T12:59:49;21.50;74.90
49224;DHT22;35050;51.316;5.994;2023-05-18T13:05:10;21.20;75.00
49224;DHT22;35050;51.316;5.994;2023-05-18T13:07:38;21.40;74.50
49224;DHT22;35050;51.316;5.994;2023-05-18T13:10:08;21.30;75.80
49224;DHT22;35050;51.316;5.994;2023-05-18T13:12:41;21.30;75.70
49224;DHT22;35050;51.316;5.994;2023-05-18T13:15:16;21.40;75.50
49224;DHT22;35050;51.316;5.994;2023-05-18T13:17:59;21.50;75.40
49224;DHT22;35050;51.316;5.994;2023-05-18T13:20:30;20.90;74.20
49224;DHT22;35050;51.316;5.994;2023-05-18T13:22:58;21.40;75.60
49224;DHT22;35050;51.316;5.994;2023-05-18T13:25:26;20.80;74.60
49224;DHT22;35050;51.316;5.994;2023-05-18T13:27:52;21.40;74.70
49224;DHT22;35050;51.316;5.994;2023-05-18T13:30:20;21.70;76.90
49224;DHT22;35050;51.316;5.994;2023-05-18T13:32:46;21.70;74.70
49224;DHT22;35050;51.316;5.994;2023-05-18T13:35:11;21.80;75.80
49224;DHT22;35050;51.316;5.994;2023-05-18T13:37:38;21.10;74.40
49224;DHT22;35050;51.316;5.994;2023-05-18T13:40:04;20.70;76.30
49224;DHT22;35050;51.316;5.994;2023-05-18T13:42:31;21.30;75.10
49224;DHT22;35050;51.316;5.994;2023-05-18T13:44:56;20.90;74.00
49224;DHT22;35050;51.316;5.994;2023-05-18T13:47:22;21.00;75.20
49224;DHT22;35050;51.316;5.994;2023-05-18T13:49:48;20.10;75.30
49224;DHT22;35050;51.316;5.994;2023-05-18T13:52:13;20.30;75.30
49224;DHT22;35050;51.316;5.994;2023-05-18T13:54:39;19.90;76.50
49224;DHT22;35050;51.316;5.994;2023-05-18T13:57:05;20.40;76.80
49224;DHT22;35050;51.316;5.994;2023-05-18T13:59:32;20.40;75.50
49224;DHT22;35050;51.316;5.994;2023-05-18T14:01:59;20.50;76.20
49224;DHT22;35050;51.316;5.994;2023-05-18T14:04:26;20.30;75.30
49224;DHT22;35050;51.316;5.994;2023-05-18T14:06:51;20.40;75.40
49224;DHT22;35050;51.316;5.994;2023-05-18T14:09:18;21.00;75.70
49224;DHT22;35050;51.316;5.994;2023-05-18T14:11:44;21.10;76.00
49224;DHT22;35050;51.316;5.994;2023-05-18T14:14:10;21.60;76.10
49224;DHT22;35050;51.316;5.994;2023-05-18T14:16:35;21.60;74.30
49224;DHT22;35050;51.316;5.994;2023-05-18T14:19:01;21.60;75.90
49224;DHT22;35050;51.316;5.994;2023-05-18T14:21:27;21.30;74.40
49224;DHT22;35050;51.316;5.994;2023-05-18T14:23:53;21.80;75.70
49224;DHT22;35050;51.316;5.994;2023-05-18T14:26:18;21.80;74.80
49224;DHT22;35050;51.316;5.994;2023-05-18T14:28:44;22.10;76.00
49224;DHT22;35050;51.316;5.994;2023-05-18T14:31:10;21.90;75.10
49224;DHT22;35050;51.316;5.994;2023-05-18T14:33:36;21.70;74.80
49224;DHT22;35050;51.316;5.994;2023-05-18T14:36:01;22.20;74.20
49224;DHT22;35050;51.316;5.994;2023-05-18T14:38:27;21.80;73.90
49224;DHT22;35050;51.316;5.994;2023-05-18T14:40:53;22.30;73.00
49224;DHT22;35050;51.316;5.994;2023-05-18T14:43:18;22.70;72.50
49224;DHT22;35050;51.316;5.994;2023-05-18T14:45:44;22.20;73.70
49224;DHT22;35050;51.316;5.994;2023-05-18T14:48:10;22.50;73.30
49224;DHT22;35050;51.316;5.994;2023-05-18T14:50:36;22.70;72.10
49224;DHT22;35050;51.316;5.994;2023-05-18T14:53:01;22.60;72.30
49224;DHT22;35050;51.316;5.994;2023-05-18T14:55:27;22.10;72.00
49224;DHT22;35050;51.316;5.994;2023-05-18T14:57:53;22.70;73.70
49224;DHT22;35050;51.316;5.994;2023-05-18T15:00:19;22.60;72.20
49224;DHT22;35050;51.316;5.994;2023-05-18T15:02:45;22.80;71.80
49224;DHT22;35050;51.316;5.994;2023-05-18T15:05:10;22.90;71.60
49224;DHT22;35050;51.316;5.994;2023-05-18T15:07:36;23.10;72.10
49224;DHT22;35050;51.316;5.994;2023-05-18T15:10:02;23.00;72.00
49224;DHT22;35050;51.316;5.994;2023-05-18T15:12:28;22.80;72.50
49224;DHT22;35050;51.316;5.994;2023-05-18T15:14:54;22.60;72.90
49224;DHT22;35050;51.316;5.994;2023-05-18T15:17:20;22.90;72.00
49224;DHT22;35050;51.316;5.994;2023-05-18T15:19:46;22.80;71.20
49224;DHT22;35050;51.316;5.994;2023-05-18T15:22:12;22.80;71.80
49224;DHT22;35050;51.316;5.994;2023-05-18T15:24:37;22.80;71.30
49224;DHT22;35050;51.316;5.994;2023-05-18T15:27:03;22.60;71.80
49224;DHT22;35050;51.316;5.994;2023-05-18T15:29:29;22.50;71.30
49224;DHT22;35050;51.316;5.994;2023-05-18T15:31:54;22.20;72.20
49224;DHT22;35050;51.316;5.994;2023-05-18T15:34:20;22.40;71.40
49224;DHT22;35050;51.316;5.994;2023-05-18T15:36:46;22.10;71.70
49224;DHT22;35050;51.316;5.994;2023-05-18T15:39:12;21.90;71.80
49224;DHT22;35050;51.316;5.994;2023-05-18T15:41:38;22.10;72.00
49224;DHT22;35050;51.316;5.994;2023-05-18T15:44:03;21.70;72.70
49224;DHT22;35050;51.316;5.994;2023-05-18T15:46:30;21.80;73.40